createdAt,value
2017-08-16T00:00:01.323Z,0
2017-08-16T00:01:01.508Z,0
2017-08-16T00:02:01.276Z,0
2017-08-16T00:03:01.259Z,0
2017-08-16T00:04:01.242Z,0
2017-08-16T00:05:01.222Z,0
2017-08-16T00:06:01.210Z,0
2017-08-16T00:07:01.185Z,0
2017-08-16T00:08:01.168Z,0
2017-08-16T00:09:01.540Z,0
2017-08-16T00:10:01.121Z,0
2017-08-16T00:11:01.100Z,0
2017-08-16T00:12:01.081Z,0
2017-08-16T00:13:01.076Z,0
2017-08-16T00:14:01.061Z,0
2017-08-16T00:15:00.715Z,0
2017-08-16T00:16:01.214Z,0
2017-08-16T00:17:00.994Z,0
2017-08-16T00:18:00.968Z,0
2017-08-16T00:19:00.942Z,0
2017-08-16T00:20:00.923Z,0
2017-08-16T00:21:00.910Z,0
2017-08-16T00:22:00.881Z,0
2017-08-16T00:23:00.865Z,0
2017-08-16T00:24:00.844Z,0
2017-08-16T00:25:00.827Z,0
2017-08-16T00:26:00.817Z,0
2017-08-16T00:27:00.793Z,0
2017-08-16T00:28:00.976Z,0
2017-08-16T00:29:00.756Z,0
2017-08-16T00:30:00.723Z,0
2017-08-16T00:31:00.716Z,0
2017-08-16T00:32:00.695Z,0
2017-08-16T00:33:15.278Z,0
2017-08-16T00:34:00.644Z,0
2017-08-16T00:35:00.373Z,0
2017-08-16T00:36:00.613Z,0
2017-08-16T00:37:00.799Z,0
2017-08-16T00:38:00.571Z,0
2017-08-16T00:39:00.558Z,0
2017-08-16T00:40:00.527Z,0
2017-08-16T00:41:00.510Z,0
2017-08-16T00:42:00.494Z,0
2017-08-16T00:43:00.203Z,0
2017-08-16T00:44:00.476Z,0
2017-08-16T00:45:00.420Z,0
2017-08-16T00:46:00.419Z,0
2017-08-16T00:47:00.405Z,0
2017-08-16T00:48:00.375Z,0
2017-08-16T00:49:00.344Z,0
2017-08-16T00:50:00.336Z,0
2017-08-16T00:51:00.312Z,0
2017-08-16T00:52:00.280Z,0
2017-08-16T00:53:00.027Z,0
2017-08-16T00:54:00.250Z,0
2017-08-16T00:55:00.231Z,0
2017-08-16T00:56:00.425Z,0
2017-08-16T00:56:59.894Z,0
2017-08-16T00:58:00.177Z,0
2017-08-16T00:59:00.162Z,0
2017-08-16T01:00:00.128Z,0
2017-08-16T01:01:00.108Z,0
2017-08-16T01:02:00.156Z,0
2017-08-16T01:03:00.067Z,0
2017-08-16T01:04:00.048Z,0
2017-08-16T01:05:00.049Z,0
2017-08-16T01:06:00.011Z,0
2017-08-16T01:06:59.993Z,0
2017-08-16T01:07:59.997Z,0
2017-08-16T01:08:59.942Z,0
2017-08-16T01:09:59.930Z,0
2017-08-16T01:10:59.921Z,0
2017-08-16T01:11:59.888Z,0
2017-08-16T01:12:59.895Z,0
2017-08-16T01:13:59.866Z,0
2017-08-16T01:14:59.833Z,0
2017-08-16T01:15:59.878Z,0
2017-08-16T01:16:59.792Z,0
2017-08-16T01:17:59.973Z,0
2017-08-16T01:18:59.752Z,0
2017-08-16T01:19:59.732Z,0
2017-08-16T01:20:59.710Z,0
2017-08-16T01:21:59.698Z,0
2017-08-16T01:22:59.677Z,0
2017-08-16T01:23:59.859Z,0
2017-08-16T01:24:59.649Z,0
2017-08-16T01:25:59.611Z,0
2017-08-16T01:26:59.597Z,0
2017-08-16T01:27:59.563Z,0
2017-08-16T01:28:59.560Z,0
2017-08-16T01:29:59.234Z,0
2017-08-16T01:30:59.507Z,0
2017-08-16T01:31:59.502Z,0
2017-08-16T01:32:59.480Z,0
2017-08-16T01:33:59.144Z,0
2017-08-16T01:34:59.428Z,0
2017-08-16T01:35:59.417Z,0
2017-08-16T01:36:59.388Z,0
2017-08-16T01:37:59.376Z,0
2017-08-16T01:38:59.356Z,0
2017-08-16T01:39:59.332Z,0
2017-08-16T01:40:59.311Z,0
2017-08-16T01:41:59.285Z,0
2017-08-16T01:42:59.273Z,0
2017-08-16T01:43:59.264Z,0
2017-08-16T01:44:59.240Z,0
2017-08-16T01:45:59.211Z,0
2017-08-16T01:46:59.238Z,0
2017-08-16T01:47:59.183Z,0
2017-08-16T01:48:59.147Z,0
2017-08-16T01:49:59.130Z,0
2017-08-16T01:50:59.115Z,0
2017-08-16T01:51:59.092Z,0
2017-08-16T01:52:58.768Z,0
2017-08-16T01:53:59.100Z,0
2017-08-16T01:54:59.030Z,0
2017-08-16T01:55:59.009Z,0
2017-08-16T01:56:58.690Z,0
2017-08-16T01:57:58.980Z,0
2017-08-16T01:58:58.960Z,0
2017-08-16T01:59:58.942Z,0
2017-08-16T02:00:58.907Z,0
2017-08-16T02:01:58.891Z,0
2017-08-16T02:02:58.878Z,0
2017-08-16T02:03:58.855Z,0
2017-08-16T02:04:58.528Z,0
2017-08-16T02:05:58.808Z,0
2017-08-16T02:06:58.795Z,0
2017-08-16T02:07:58.774Z,0
2017-08-16T02:08:58.762Z,0
2017-08-16T02:09:58.738Z,0
2017-08-16T02:10:58.716Z,0
2017-08-16T02:11:58.752Z,0
2017-08-16T02:12:58.926Z,0
2017-08-16T02:13:58.659Z,0
2017-08-16T02:14:58.631Z,0
2017-08-16T02:15:58.662Z,0
2017-08-16T02:16:58.603Z,0
2017-08-16T02:17:58.568Z,0
2017-08-16T02:18:58.555Z,0
2017-08-16T02:19:58.540Z,0
2017-08-16T02:20:58.210Z,0
2017-08-16T02:21:58.487Z,0
2017-08-16T02:22:58.480Z,0
2017-08-16T02:23:58.461Z,0
2017-08-16T02:24:58.433Z,0
2017-08-16T02:25:58.462Z,0
2017-08-16T02:26:58.403Z,0
2017-08-16T02:27:58.376Z,0
2017-08-16T02:28:58.345Z,0
2017-08-16T02:29:58.328Z,0
2017-08-16T02:30:58.322Z,0
2017-08-16T02:31:58.297Z,0
2017-08-16T02:32:57.968Z,0
2017-08-16T02:33:58.303Z,0
2017-08-16T02:34:58.242Z,0
2017-08-16T02:35:58.215Z,0
2017-08-16T02:36:58.197Z,0
2017-08-16T02:37:58.183Z,0
2017-08-16T02:38:58.152Z,0
2017-08-16T02:39:58.192Z,0
2017-08-16T02:40:58.108Z,0
2017-08-16T02:41:58.099Z,0
2017-08-16T02:42:58.074Z,0
2017-08-16T02:43:57.745Z,0
2017-08-16T02:44:57.737Z,0
2017-08-16T02:45:58.014Z,0
2017-08-16T02:46:57.999Z,0
2017-08-16T02:47:57.977Z,0
2017-08-16T02:48:57.955Z,0
2017-08-16T02:49:57.933Z,0
2017-08-16T02:50:57.908Z,0
2017-08-16T02:51:57.897Z,0
2017-08-16T02:52:57.869Z,0
2017-08-16T02:53:57.848Z,0
2017-08-16T02:54:57.831Z,0
2017-08-16T02:55:57.814Z,0
2017-08-16T02:56:57.799Z,0
2017-08-16T02:57:57.775Z,0
2017-08-16T02:58:57.746Z,0
2017-08-16T02:59:57.734Z,0
2017-08-16T03:00:57.712Z,0
2017-08-16T03:01:57.698Z,0
2017-08-16T03:02:57.670Z,0
2017-08-16T03:03:57.651Z,0
2017-08-16T03:04:57.627Z,0
2017-08-16T03:05:57.610Z,0
2017-08-16T03:06:57.593Z,0
2017-08-16T03:07:57.627Z,0
2017-08-16T03:08:57.548Z,0
2017-08-16T03:09:57.533Z,0
2017-08-16T03:10:57.216Z,0
2017-08-16T03:11:57.503Z,0
2017-08-16T03:12:57.480Z,0
2017-08-16T03:13:57.442Z,0
2017-08-16T03:14:57.479Z,0
2017-08-16T03:15:57.102Z,0
2017-08-16T03:16:57.083Z,0
2017-08-16T03:17:57.369Z,0
2017-08-16T03:18:57.347Z,0
2017-08-16T03:19:57.327Z,0
2017-08-16T03:20:57.310Z,0
2017-08-16T03:21:57.290Z,0
2017-08-16T03:22:57.274Z,0
2017-08-16T03:23:57.248Z,0
2017-08-16T03:24:57.227Z,0
2017-08-16T03:25:57.207Z,0
2017-08-16T03:26:57.201Z,0
2017-08-16T03:27:57.162Z,0
2017-08-16T03:28:57.142Z,0
2017-08-16T03:29:56.821Z,0
2017-08-16T03:30:57.164Z,0
2017-08-16T03:31:57.110Z,0
2017-08-16T03:32:57.121Z,0
2017-08-16T03:33:57.044Z,0
2017-08-16T03:34:56.723Z,0
2017-08-16T03:35:57.068Z,0
2017-08-16T03:36:56.709Z,0
2017-08-16T03:37:56.967Z,0
2017-08-16T03:38:56.644Z,0
2017-08-16T03:39:56.924Z,0
2017-08-16T03:40:56.917Z,0
2017-08-16T03:41:56.899Z,4
2017-08-16T03:42:56.872Z,4
2017-08-16T03:43:56.844Z,0
2017-08-16T03:44:56.834Z,4
2017-08-16T03:45:56.811Z,4
2017-08-16T03:46:56.791Z,8
2017-08-16T03:47:56.769Z,4
2017-08-16T03:48:56.756Z,8
2017-08-16T03:49:56.751Z,8
2017-08-16T03:50:56.410Z,12
2017-08-16T03:51:56.702Z,12
2017-08-16T03:52:56.668Z,16
2017-08-16T03:53:56.645Z,16
2017-08-16T03:54:56.624Z,20
2017-08-16T03:55:56.609Z,20
2017-08-16T03:56:56.625Z,24
2017-08-16T03:57:56.558Z,28
2017-08-16T03:58:56.246Z,32
2017-08-16T03:59:56.227Z,36
2017-08-16T04:00:56.511Z,40
2017-08-16T04:01:56.585Z,44
2017-08-16T04:02:56.217Z,48
2017-08-16T04:03:56.454Z,56
2017-08-16T04:04:56.431Z,60
2017-08-16T04:05:56.406Z,68
2017-08-16T04:06:56.437Z,76
2017-08-16T04:07:56.367Z,76
2017-08-16T04:08:56.050Z,84
2017-08-16T04:09:56.028Z,92
2017-08-16T04:10:56.309Z,96
2017-08-16T04:11:56.292Z,108
2017-08-16T04:12:56.268Z,116
2017-08-16T04:13:56.244Z,128
2017-08-16T04:14:56.239Z,136
2017-08-16T04:15:56.212Z,148
2017-08-16T04:16:56.186Z,168
2017-08-16T04:17:56.171Z,184
2017-08-16T04:18:56.140Z,196
2017-08-16T04:19:56.123Z,212
2017-08-16T04:20:56.104Z,232
2017-08-16T04:21:56.081Z,260
2017-08-16T04:22:55.767Z,288
2017-08-16T04:23:55.745Z,316
2017-08-16T04:24:56.018Z,344
2017-08-16T04:25:55.995Z,372
2017-08-16T04:26:56.007Z,404
2017-08-16T04:27:55.954Z,436
2017-08-16T04:28:55.937Z,468
2017-08-16T04:29:55.618Z,500
2017-08-16T04:30:55.915Z,540
2017-08-16T04:31:55.879Z,580
2017-08-16T04:32:55.860Z,632
2017-08-16T04:33:55.839Z,684
2017-08-16T04:34:55.826Z,732
2017-08-16T04:35:55.800Z,780
2017-08-16T04:36:55.785Z,824
2017-08-16T04:37:55.765Z,876
2017-08-16T04:38:55.735Z,936
2017-08-16T04:39:55.120Z,1004
2017-08-16T04:40:55.698Z,1060
2017-08-16T04:41:55.674Z,1124
2017-08-16T04:42:55.671Z,1152
2017-08-16T04:43:55.645Z,1200
2017-08-16T04:44:55.666Z,1304
2017-08-16T04:45:55.610Z,1356
2017-08-16T04:46:55.579Z,1376
2017-08-16T04:47:55.552Z,1328
2017-08-16T04:48:55.532Z,1284
2017-08-16T04:49:55.220Z,1348
2017-08-16T04:50:55.505Z,1448
2017-08-16T04:51:55.470Z,1600
2017-08-16T04:52:55.457Z,1680
2017-08-16T04:53:55.428Z,1764
2017-08-16T04:54:55.415Z,1860
2017-08-16T04:55:55.398Z,1960
2017-08-16T04:56:55.370Z,2044
2017-08-16T04:57:55.354Z,2136
2017-08-16T04:58:55.331Z,2228
2017-08-16T04:59:55.319Z,2320
2017-08-16T05:00:55.300Z,2408
2017-08-16T05:01:55.269Z,2480
2017-08-16T05:02:55.253Z,2552
2017-08-16T05:03:55.229Z,2612
2017-08-16T05:04:55.205Z,2676
2017-08-16T05:05:55.192Z,2744
2017-08-16T05:06:55.177Z,2808
2017-08-16T05:07:55.140Z,2880
2017-08-16T05:08:55.184Z,2952
2017-08-16T05:09:55.119Z,3044
2017-08-16T05:10:55.096Z,3136
2017-08-16T05:11:55.085Z,3284
2017-08-16T05:12:55.044Z,3488
2017-08-16T05:13:55.042Z,4132
2017-08-16T05:14:55.059Z,4372
2017-08-16T05:15:54.993Z,4552
2017-08-16T05:16:54.967Z,4784
2017-08-16T05:17:54.949Z,5024
2017-08-16T05:18:54.686Z,5176
2017-08-16T05:19:54.603Z,5200
2017-08-16T05:20:54.885Z,5188
2017-08-16T05:21:54.867Z,5164
2017-08-16T05:22:54.943Z,5428
2017-08-16T05:23:54.832Z,5560
2017-08-16T05:24:54.507Z,5100
2017-08-16T05:25:54.792Z,4796
2017-08-16T05:26:54.781Z,4980
2017-08-16T05:27:54.751Z,5248
2017-08-16T05:28:54.734Z,5560
2017-08-16T05:29:54.411Z,5740
2017-08-16T05:30:54.688Z,6156
2017-08-16T05:31:54.669Z,5980
2017-08-16T05:32:54.647Z,5472
2017-08-16T05:33:54.636Z,5088
2017-08-16T05:34:54.306Z,4980
2017-08-16T05:36:54.276Z,4996
2017-08-16T05:37:54.565Z,5044
2017-08-16T05:38:54.232Z,5136
2017-08-16T05:39:54.524Z,5416
2017-08-16T05:40:54.487Z,5140
2017-08-16T05:41:54.477Z,4624
2017-08-16T05:42:54.457Z,4524
2017-08-16T05:43:54.131Z,4436
2017-08-16T05:44:54.421Z,4452
2017-08-16T05:45:54.416Z,4640
2017-08-16T05:46:54.374Z,4952
2017-08-16T05:47:54.103Z,5320
2017-08-16T05:48:54.344Z,5732
2017-08-16T05:49:54.318Z,6208
2017-08-16T05:50:54.302Z,6396
2017-08-16T05:51:54.278Z,6160
2017-08-16T05:52:54.252Z,5904
2017-08-16T05:53:54.235Z,5808
2017-08-16T05:54:54.217Z,5740
2017-08-16T05:55:54.205Z,5900
2017-08-16T05:56:53.886Z,6300
2017-08-16T05:57:54.161Z,6704
2017-08-16T05:58:54.144Z,7124
2017-08-16T05:59:54.128Z,7604
2017-08-16T06:00:54.112Z,7816
2017-08-16T06:01:54.079Z,8088
2017-08-16T06:02:54.060Z,8876
2017-08-16T06:03:54.045Z,8968
2017-08-16T06:04:54.014Z,9016
2017-08-16T06:05:54.059Z,9840
2017-08-16T06:06:53.683Z,9884
2017-08-16T06:07:53.664Z,9428
2017-08-16T06:08:53.655Z,10636
2017-08-16T06:09:53.981Z,10152
2017-08-16T06:10:53.604Z,12964
2017-08-16T06:11:53.935Z,12728
2017-08-16T06:12:53.566Z,12688
2017-08-16T06:13:53.849Z,15840
2017-08-16T06:14:53.824Z,14944
2017-08-16T06:15:53.809Z,11876
2017-08-16T06:16:53.784Z,11816
2017-08-16T06:17:53.765Z,16256
2017-08-16T06:18:53.745Z,17824
2017-08-16T06:19:53.730Z,17760
2017-08-16T06:20:53.723Z,15744
2017-08-16T06:21:53.399Z,17568
2017-08-16T06:22:53.386Z,18304
2017-08-16T06:23:53.653Z,19680
2017-08-16T06:24:53.640Z,19968
2017-08-16T06:25:53.633Z,17184
2017-08-16T06:26:53.606Z,13920
2017-08-16T06:27:53.587Z,19072
2017-08-16T06:28:53.566Z,14784
2017-08-16T06:29:53.557Z,20416
2017-08-16T06:30:53.553Z,17792
2017-08-16T06:31:53.545Z,21248
2017-08-16T06:32:53.502Z,16928
2017-08-16T06:33:53.485Z,20576
2017-08-16T06:34:53.465Z,14276
2017-08-16T06:35:53.464Z,22176
2017-08-16T06:36:53.436Z,23936
2017-08-16T06:37:53.418Z,22016
2017-08-16T06:38:53.503Z,19648
2017-08-16T06:39:53.390Z,19840
2017-08-16T06:40:53.375Z,18080
2017-08-16T06:41:53.361Z,21632
2017-08-16T06:42:53.412Z,23392
2017-08-16T06:43:53.027Z,17312
2017-08-16T06:44:53.334Z,17888
2017-08-16T06:45:53.289Z,24064
2017-08-16T06:46:53.281Z,25056
2017-08-16T06:47:53.265Z,24256
2017-08-16T06:48:53.241Z,23232
2017-08-16T06:49:53.237Z,24672
2017-08-16T06:50:53.232Z,25216
2017-08-16T06:51:52.906Z,23936
2017-08-16T06:52:53.240Z,23296
2017-08-16T06:53:52.918Z,23008
2017-08-16T06:54:52.859Z,25888
2017-08-16T06:55:52.848Z,25312
2017-08-16T06:56:53.143Z,27168
2017-08-16T06:57:52.861Z,28320
2017-08-16T06:58:53.110Z,27648
2017-08-16T06:59:53.102Z,26688
2017-08-16T07:00:53.082Z,26432
2017-08-16T07:01:52.767Z,27424
2017-08-16T07:02:53.053Z,28032
2017-08-16T07:03:53.042Z,29600
2017-08-16T07:04:53.025Z,29888
2017-08-16T07:05:53.014Z,29088
2017-08-16T07:06:53.307Z,29184
2017-08-16T07:07:52.696Z,30912
2017-08-16T07:08:52.966Z,30272
2017-08-16T07:09:53.017Z,27072
2017-08-16T07:10:52.948Z,15160
2017-08-16T07:11:52.633Z,15084
2017-08-16T07:12:52.985Z,16128
2017-08-16T07:13:52.922Z,17408
2017-08-16T07:14:52.909Z,28800
2017-08-16T07:15:52.883Z,29600
2017-08-16T07:16:52.873Z,28192
2017-08-16T07:17:52.858Z,29088
2017-08-16T07:18:52.594Z,31232
2017-08-16T07:19:52.895Z,31488
2017-08-16T07:20:52.858Z,32704
2017-08-16T07:21:52.812Z,32832
2017-08-16T07:22:52.799Z,32320
2017-08-16T07:23:52.780Z,31648
2017-08-16T07:24:52.823Z,33088
2017-08-16T07:25:52.756Z,35776
2017-08-16T07:26:52.814Z,35968
2017-08-16T07:27:52.735Z,36736
2017-08-16T07:28:52.724Z,37152
2017-08-16T07:29:52.712Z,36384
2017-08-16T07:30:52.397Z,36704
2017-08-16T07:31:52.692Z,35744
2017-08-16T07:32:52.671Z,36608
2017-08-16T07:33:52.668Z,38880
2017-08-16T07:34:52.368Z,41440
2017-08-16T07:35:52.685Z,36096
2017-08-16T07:36:52.622Z,34560
2017-08-16T07:37:52.619Z,34592
2017-08-16T07:38:52.609Z,35552
2017-08-16T07:39:52.602Z,36704
2017-08-16T07:40:52.589Z,36480
2017-08-16T07:41:52.278Z,32864
2017-08-16T07:42:52.575Z,30624
2017-08-16T07:43:52.555Z,30112
2017-08-16T07:44:52.546Z,33760
2017-08-16T07:45:52.533Z,37920
2017-08-16T07:46:52.023Z,40960
2017-08-16T07:47:52.513Z,39424
2017-08-16T07:48:52.504Z,37120
2017-08-16T07:49:52.496Z,25792
2017-08-16T07:50:52.487Z,30944
2017-08-16T07:51:52.474Z,41056
2017-08-16T07:52:52.469Z,46496
2017-08-16T07:53:52.709Z,47136
2017-08-16T07:54:52.436Z,48768
2017-08-16T07:55:51.834Z,52480
2017-08-16T07:56:52.130Z,52896
2017-08-16T07:57:52.411Z,50368
2017-08-16T07:58:52.408Z,47488
2017-08-16T07:59:52.390Z,47200
2017-08-16T08:00:52.395Z,51680
2017-08-16T08:01:52.368Z,53088
2017-08-16T08:02:52.371Z,53888
2017-08-16T08:03:52.371Z,54944
2017-08-16T08:04:52.355Z,54720
2017-08-16T08:05:52.339Z,54176
2017-08-16T08:06:52.035Z,53376
2017-08-16T08:07:52.316Z,53920
2017-08-16T08:08:52.309Z,55232
2017-08-16T08:09:52.006Z,58400
2017-08-16T08:10:52.291Z,59584
2017-08-16T08:11:52.278Z,58304
2017-08-16T08:12:51.970Z,52896
2017-08-16T08:13:52.261Z,51360
2017-08-16T08:14:52.365Z,51552
2017-08-16T08:15:52.251Z,53408
2017-08-16T08:16:52.245Z,53504
2017-08-16T08:17:52.282Z,53600
2017-08-16T08:18:52.217Z,53376
2017-08-16T08:19:52.216Z,52928
2017-08-16T08:20:51.903Z,53344
2017-08-16T08:21:52.198Z,55168
2017-08-16T08:22:51.886Z,56768
2017-08-16T08:23:52.185Z,53536
2017-08-16T08:24:51.876Z,48736
2017-08-16T08:25:52.170Z,47808
2017-08-16T08:26:52.150Z,53632
2017-08-16T08:27:52.153Z,57600
2017-08-16T08:28:52.147Z,61280
2017-08-16T08:29:51.842Z,64736
2017-08-16T08:30:51.829Z,66144
2017-08-16T08:31:52.167Z,61472
2017-08-16T08:32:52.134Z,52032
2017-08-16T08:33:52.113Z,47840
2017-08-16T08:34:52.102Z,47232
2017-08-16T08:35:52.095Z,48256
2017-08-16T08:36:52.098Z,48160
2017-08-16T08:37:52.080Z,46656
2017-08-16T08:38:51.777Z,45024
2017-08-16T08:39:52.062Z,44352
2017-08-16T08:40:52.067Z,47168
2017-08-16T08:41:52.049Z,50272
2017-08-16T08:42:52.047Z,54560
2017-08-16T08:43:52.033Z,57984
2017-08-16T08:44:52.029Z,59232
2017-08-16T08:45:52.022Z,57408
2017-08-16T08:46:52.017Z,54720
2017-08-16T08:47:52.005Z,50496
2017-08-16T08:48:52.005Z,45856
2017-08-16T08:49:51.999Z,43776
2017-08-16T08:50:51.997Z,46688
2017-08-16T08:51:52.000Z,55712
2017-08-16T08:52:51.972Z,61824
2017-08-16T08:53:51.969Z,65024
2017-08-16T08:54:51.963Z,61472
2017-08-16T08:55:51.971Z,58912
2017-08-16T08:56:51.644Z,56704
2017-08-16T08:57:51.946Z,59264
2017-08-16T08:58:51.940Z,60416
2017-08-16T08:59:51.934Z,59264
2017-08-16T09:00:51.918Z,58208
2017-08-16T09:01:51.925Z,55104
2017-08-16T09:02:51.910Z,49280
2017-08-16T09:03:51.697Z,43040
2017-08-16T09:04:51.904Z,39776
2017-08-16T09:05:51.890Z,43040
2017-08-16T09:06:51.905Z,49088
2017-08-16T09:07:51.892Z,52640
2017-08-16T09:08:51.876Z,53248
2017-08-16T09:09:51.874Z,50496
2017-08-16T09:10:51.254Z,49088
2017-08-16T09:11:51.849Z,50464
2017-08-16T09:12:51.845Z,47840
2017-08-16T09:13:51.835Z,44928
2017-08-16T09:14:51.832Z,44064
2017-08-16T09:15:51.821Z,42880
2017-08-16T09:16:51.815Z,42592
2017-08-16T09:17:51.802Z,44448
2017-08-16T09:18:51.519Z,47328
2017-08-16T09:19:51.787Z,50656
2017-08-16T09:20:51.844Z,51744
2017-08-16T09:21:51.819Z,52160
2017-08-16T09:22:51.855Z,54720
2017-08-16T09:23:51.758Z,54752
2017-08-16T09:24:51.771Z,53920
2017-08-16T09:25:51.740Z,50784
2017-08-16T09:26:51.745Z,48672
2017-08-16T09:27:51.728Z,45216
2017-08-16T09:28:51.728Z,46272
2017-08-16T09:29:51.420Z,48288
2017-08-16T09:30:51.750Z,54432
2017-08-16T09:31:51.700Z,59936
2017-08-16T09:32:51.687Z,60352
2017-08-16T09:33:51.676Z,56288
2017-08-16T09:34:51.711Z,53888
2017-08-16T09:35:51.666Z,52160
2017-08-16T09:36:51.700Z,50208
2017-08-16T09:37:51.339Z,48896
2017-08-16T09:38:51.640Z,48128
2017-08-16T09:39:51.623Z,49216
2017-08-16T09:40:51.613Z,53440
2017-08-16T09:41:51.656Z,57184
2017-08-16T09:42:51.619Z,59008
2017-08-16T09:43:51.292Z,58368
2017-08-16T09:44:51.589Z,56960
2017-08-16T09:45:51.591Z,54592
2017-08-16T09:46:51.834Z,50560
2017-08-16T09:47:51.557Z,47328
2017-08-16T09:48:51.546Z,47680
2017-08-16T09:49:51.547Z,46816
2017-08-16T09:50:51.552Z,47904
2017-08-16T09:51:51.576Z,53056
2017-08-16T09:52:51.524Z,52384
2017-08-16T09:53:51.523Z,55744
2017-08-16T09:54:51.507Z,56864
2017-08-16T09:55:51.827Z,59648
2017-08-16T09:56:51.530Z,69792
2017-08-16T09:57:51.490Z,69472
2017-08-16T09:58:51.168Z,73216
2017-08-16T09:59:51.461Z,69984
2017-08-16T10:00:50.847Z,63520
2017-08-16T10:01:51.443Z,56096
2017-08-16T10:02:51.137Z,53824
2017-08-16T10:03:51.432Z,57888
2017-08-16T10:04:51.416Z,62208
2017-08-16T10:05:51.133Z,64640
2017-08-16T10:06:51.100Z,65088
2017-08-16T10:07:51.395Z,64576
2017-08-16T10:08:51.390Z,60096
2017-08-16T10:09:51.380Z,54880
2017-08-16T10:10:51.367Z,56992
2017-08-16T10:11:51.368Z,58144
2017-08-16T10:12:51.359Z,59360
2017-08-16T10:13:51.348Z,59520
2017-08-16T10:14:51.342Z,68608
2017-08-16T10:15:51.387Z,68928
2017-08-16T10:16:51.334Z,70784
2017-08-16T10:17:51.323Z,66976
2017-08-16T10:18:51.314Z,66752
2017-08-16T10:19:51.321Z,58944
2017-08-16T10:20:51.337Z,57280
2017-08-16T10:21:51.542Z,61248
2017-08-16T10:22:51.337Z,58368
2017-08-16T10:23:51.287Z,61440
2017-08-16T10:24:51.272Z,72928
2017-08-16T10:25:50.962Z,75456
2017-08-16T10:26:51.245Z,73632
2017-08-16T10:27:51.244Z,70432
2017-08-16T10:28:51.234Z,66720
2017-08-16T10:29:51.230Z,62912
2017-08-16T10:30:51.264Z,63744
2017-08-16T10:31:51.234Z,68672
2017-08-16T10:32:50.928Z,74944
2017-08-16T10:33:51.245Z,77792
2017-08-16T10:34:51.194Z,79808
2017-08-16T10:35:51.171Z,74496
2017-08-16T10:36:51.465Z,67072
2017-08-16T10:37:51.164Z,62592
2017-08-16T10:38:50.893Z,58560
2017-08-16T10:39:51.155Z,53536
2017-08-16T10:40:50.836Z,37504
2017-08-16T10:41:51.137Z,29024
2017-08-16T10:42:51.125Z,17152
2017-08-16T10:43:51.106Z,14248
2017-08-16T10:44:51.093Z,12988
2017-08-16T10:45:50.796Z,12572
2017-08-16T10:46:51.081Z,12408
2017-08-16T10:47:51.075Z,12196
2017-08-16T10:48:51.059Z,12080
2017-08-16T10:49:50.755Z,11888
2017-08-16T10:50:51.040Z,11880
2017-08-16T10:51:51.025Z,11528
2017-08-16T10:52:51.014Z,11216
2017-08-16T10:53:51.105Z,10944
2017-08-16T10:54:50.997Z,10788
2017-08-16T10:55:50.684Z,10576
2017-08-16T10:56:50.965Z,10352
2017-08-16T10:57:50.648Z,10100
2017-08-16T10:58:50.937Z,10056
2017-08-16T10:59:50.932Z,10436
2017-08-16T11:00:50.964Z,10776
2017-08-16T11:01:50.932Z,10696
2017-08-16T11:02:50.886Z,10720
2017-08-16T11:03:50.869Z,10704
2017-08-16T11:04:50.857Z,11300
2017-08-16T11:05:50.846Z,11560
2017-08-16T11:06:50.835Z,11552
2017-08-16T11:07:51.126Z,12112
2017-08-16T11:08:50.799Z,12248
2017-08-16T11:09:50.783Z,12184
2017-08-16T11:10:50.767Z,12276
2017-08-16T11:11:50.756Z,12076
2017-08-16T11:12:50.740Z,11224
2017-08-16T11:13:50.715Z,10968
2017-08-16T11:14:50.715Z,11312
2017-08-16T11:15:50.691Z,11384
2017-08-16T11:16:50.981Z,11364
2017-08-16T11:17:50.660Z,11292
2017-08-16T11:18:50.678Z,11368
2017-08-16T11:19:50.639Z,11364
2017-08-16T11:20:50.619Z,11468
2017-08-16T11:21:50.298Z,11528
2017-08-16T11:22:50.576Z,11532
2017-08-16T11:23:50.560Z,11560
2017-08-16T11:24:50.548Z,11952
2017-08-16T11:25:50.584Z,12492
2017-08-16T11:26:50.526Z,12908
2017-08-16T11:27:50.209Z,13268
2017-08-16T11:28:50.188Z,13364
2017-08-16T11:29:50.167Z,13260
2017-08-16T11:30:50.438Z,13268
2017-08-16T11:31:51.085Z,13540
2017-08-16T11:32:50.421Z,13836
2017-08-16T11:33:50.404Z,14028
2017-08-16T11:34:50.388Z,13872
2017-08-16T11:35:50.371Z,13640
2017-08-16T11:36:50.047Z,13300
2017-08-16T11:37:50.330Z,12964
2017-08-16T11:38:50.322Z,12624
2017-08-16T11:39:50.301Z,12064
2017-08-16T11:40:50.291Z,12396
2017-08-16T11:41:50.332Z,12436
2017-08-16T11:42:50.272Z,12388
2017-08-16T11:43:50.340Z,12240
2017-08-16T11:44:50.223Z,12060
2017-08-16T11:45:50.214Z,11916
2017-08-16T11:46:49.889Z,12112
2017-08-16T11:47:50.179Z,12140
2017-08-16T11:48:50.162Z,11704
2017-08-16T11:49:50.144Z,11428
2017-08-16T11:50:50.142Z,11544
2017-08-16T11:51:50.113Z,11276
2017-08-16T11:52:50.097Z,10956
2017-08-16T11:53:50.088Z,10920
2017-08-16T11:54:50.059Z,11404
2017-08-16T11:55:50.041Z,12008
2017-08-16T11:56:51.473Z,12332
2017-08-16T11:57:49.706Z,12700
2017-08-16T11:58:49.690Z,13284
2017-08-16T11:59:49.684Z,13952
2017-08-16T12:00:49.962Z,14212
2017-08-16T12:01:49.954Z,14192
2017-08-16T12:02:50.133Z,13760
2017-08-16T12:03:49.910Z,13448
2017-08-16T12:04:49.702Z,13304
2017-08-16T12:05:49.576Z,14388
2017-08-16T12:06:49.866Z,15508
2017-08-16T12:07:49.901Z,16896
2017-08-16T12:08:49.841Z,17856
2017-08-16T12:09:49.819Z,17760
2017-08-16T12:10:49.805Z,18016
2017-08-16T12:11:49.778Z,18336
2017-08-16T12:12:50.278Z,18944
2017-08-16T12:13:49.740Z,19360
2017-08-16T12:14:49.730Z,19456
2017-08-16T12:15:49.717Z,19008
2017-08-16T12:16:49.430Z,19200
2017-08-16T12:17:49.683Z,18816
2017-08-16T12:18:49.682Z,18080
2017-08-16T12:19:49.354Z,17088
2017-08-16T12:20:49.654Z,16472
2017-08-16T12:21:49.320Z,16416
2017-08-16T12:22:49.616Z,16356
2017-08-16T12:23:49.640Z,16016
2017-08-16T12:24:49.628Z,16832
2017-08-16T12:25:49.557Z,16896
2017-08-16T12:26:49.544Z,16812
2017-08-16T12:27:49.525Z,15652
2017-08-16T12:28:49.520Z,14620
2017-08-16T12:29:49.498Z,13928
2017-08-16T12:30:49.525Z,14444
2017-08-16T12:31:49.174Z,13388
2017-08-16T12:32:49.146Z,13080
2017-08-16T12:33:49.427Z,13308
2017-08-16T12:34:49.414Z,14052
2017-08-16T12:35:49.093Z,13672
2017-08-16T12:36:49.384Z,12368
2017-08-16T12:37:49.366Z,11064
2017-08-16T12:38:49.349Z,10644
2017-08-16T12:39:49.335Z,10240
2017-08-16T12:40:49.313Z,9876
2017-08-16T12:41:49.301Z,9624
2017-08-16T12:42:49.284Z,9316
2017-08-16T12:43:49.273Z,9024
2017-08-16T12:44:48.946Z,8956
2017-08-16T12:45:49.244Z,9104
2017-08-16T12:46:49.217Z,9240
2017-08-16T12:47:48.902Z,9460
2017-08-16T12:48:49.198Z,9896
2017-08-16T12:49:49.182Z,10272
2017-08-16T12:50:49.147Z,10744
2017-08-16T12:51:49.151Z,11316
2017-08-16T12:52:49.129Z,11488
2017-08-16T12:53:48.819Z,12280
2017-08-16T12:54:49.094Z,13180
2017-08-16T12:55:49.067Z,13404
2017-08-16T12:56:49.062Z,14140
2017-08-16T12:57:48.740Z,14012
2017-08-16T12:58:49.021Z,13860
2017-08-16T12:59:49.012Z,13216
2017-08-16T13:00:48.996Z,13012
2017-08-16T13:01:48.975Z,13332
2017-08-16T13:02:48.956Z,13668
2017-08-16T13:03:48.949Z,13912
2017-08-16T13:04:48.930Z,13904
2017-08-16T13:05:48.915Z,13720
2017-08-16T13:06:48.597Z,13656
2017-08-16T13:07:48.926Z,13508
2017-08-16T13:08:48.867Z,13376
2017-08-16T13:09:48.850Z,13108
2017-08-16T13:10:48.832Z,13308
2017-08-16T13:11:48.814Z,14408
2017-08-16T13:12:48.490Z,15552
2017-08-16T13:13:48.775Z,16416
2017-08-16T13:14:48.456Z,15992
2017-08-16T13:15:48.742Z,15584
2017-08-16T13:16:48.737Z,15276
2017-08-16T13:17:48.719Z,14688
2017-08-16T13:18:48.707Z,13384
2017-08-16T13:19:48.683Z,12304
2017-08-16T13:20:48.662Z,12488
2017-08-16T13:21:48.346Z,13732
2017-08-16T13:22:48.344Z,14800
2017-08-16T13:23:48.622Z,15092
2017-08-16T13:24:48.623Z,14664
2017-08-16T13:25:48.289Z,14028
2017-08-16T13:26:48.578Z,12708
2017-08-16T13:27:48.562Z,11784
2017-08-16T13:28:48.539Z,11140
2017-08-16T13:29:48.534Z,10472